リヤド の空港の天気 - METARとTAF

キング・ハーリド国際空港(リヤド) ( OERK / RUH ) - サウジアラビア リヤド
飛行場実況気象(Metar)
観測時間01/19 14:00 AST (01/19 11:00 UTC)
風向・風速北 2m/s
視程6000m
天気現象
なし
気温17℃
湿度25%
気圧1021hPa
METAROERK 191100Z 36004KT 6000 SKC 17/M03 Q1021 NOSIG
過去の天気等 Google飛行場航空写真 Wunderground天気予報

過去48時間のMETAR

飛行場予報(TAF)
発表時間: 1/19 08:00 AST (1/19 05:00 UTC)
予報対象時間: 19日9時 AST ~ 20日15時 AST
風向・風速北北東 5m/s
視程7000m
なし
19日9時 AST ~ 19日15時 AST に一時的に
視程4000m
天気現象風塵
TAF OERK 190500Z 1906/2012 02010KT 7000 NSC
TEMPO 1906/1912 4000 DU